sensor_id;sensor_type;location;lat;lon;timestamp;pressure;altitude;pressure_sealevel;temperature;humidity
40788;BME280;26497;52.494;7.546;2023-04-15T00:00:22;100353.09;;;11.02;60.00
40788;BME280;26497;52.494;7.546;2023-04-15T00:02:50;100351.44;;;10.90;60.31
40788;BME280;26497;52.494;7.546;2023-04-15T00:05:17;100350.66;;;10.74;60.28
40788;BME280;26497;52.494;7.546;2023-04-15T00:07:44;100357.69;;;10.77;60.46
40788;BME280;26497;52.494;7.546;2023-04-15T00:10:12;100347.97;;;10.85;60.14
40788;BME280;26497;52.494;7.546;2023-04-15T00:12:39;100349.69;;;10.89;60.24
40788;BME280;26497;52.494;7.546;2023-04-15T00:15:08;100355.81;;;10.90;59.84
40788;BME280;26497;52.494;7.546;2023-04-15T00:17:38;100353.25;;;10.77;59.81
40788;BME280;26497;52.494;7.546;2023-04-15T00:20:06;100348.06;;;10.67;60.31
40788;BME280;26497;52.494;7.546;2023-04-15T00:22:33;100342.88;;;10.56;60.49
40788;BME280;26497;52.494;7.546;2023-04-15T00:25:01;100344.66;;;10.43;60.71
40788;BME280;26497;52.494;7.546;2023-04-15T00:27:28;100346.44;;;10.31;61.13
40788;BME280;26497;52.494;7.546;2023-04-15T00:29:55;100351.69;;;10.38;60.58
40788;BME280;26497;52.494;7.546;2023-04-15T00:32:22;100341.13;;;10.47;59.90
40788;BME280;26497;52.494;7.546;2023-04-15T00:34:51;100339.38;;;10.46;60.03
40788;BME280;26497;52.494;7.546;2023-04-15T00:37:18;100342.84;;;10.54;59.88
40788;BME280;26497;52.494;7.546;2023-04-15T00:39:45;100346.34;;;10.59;59.56
40788;BME280;26497;52.494;7.546;2023-04-15T00:42:12;100336.66;;;10.61;59.58
40788;BME280;26497;52.494;7.546;2023-04-15T00:44:39;100339.34;;;10.55;60.42
40788;BME280;26497;52.494;7.546;2023-04-15T00:47:07;100337.59;;;10.53;60.54
40788;BME280;26497;52.494;7.546;2023-04-15T00:49:34;100338.47;;;10.55;61.11
40788;BME280;26497;52.494;7.546;2023-04-15T00:52:03;100345.41;;;10.73;60.22
40788;BME280;26497;52.494;7.546;2023-04-15T00:54:30;100341.06;;;10.59;60.29
40788;BME280;26497;52.494;7.546;2023-04-15T00:56:58;100337.63;;;10.50;60.67
40788;BME280;26497;52.494;7.546;2023-04-15T00:59:25;100335.84;;;10.50;60.59
40788;BME280;26497;52.494;7.546;2023-04-15T01:01:53;100341.13;;;10.47;61.13
40788;BME280;26497;52.494;7.546;2023-04-15T01:04:20;100342.91;;;10.50;61.11
40788;BME280;26497;52.494;7.546;2023-04-15T01:06:47;100343.75;;;10.55;61.02
40788;BME280;26497;52.494;7.546;2023-04-15T01:09:15;100346.38;;;10.58;61.04
40788;BME280;26497;52.494;7.546;2023-04-15T01:11:43;100347.22;;;10.58;61.44
40788;BME280;26497;52.494;7.546;2023-04-15T01:14:10;100343.75;;;10.53;61.74
40788;BME280;26497;52.494;7.546;2023-04-15T01:16:37;100344.56;;;10.61;61.47
40788;BME280;26497;52.494;7.546;2023-04-15T01:19:06;100350.81;;;10.50;61.96
40788;BME280;26497;52.494;7.546;2023-04-15T01:21:36;100351.63;;;10.59;61.86
40788;BME280;26497;52.494;7.546;2023-04-15T01:24:09;100349.81;;;10.63;61.77
40788;BME280;26497;52.494;7.546;2023-04-15T01:26:38;100347.22;;;10.58;62.37
40788;BME280;26497;52.494;7.546;2023-04-15T01:29:05;100350.75;;;10.57;62.44
40788;BME280;26497;52.494;7.546;2023-04-15T01:31:33;100348.16;;;10.50;63.17
40788;BME280;26497;52.494;7.546;2023-04-15T01:34:00;100347.22;;;10.58;62.88
40788;BME280;26497;52.494;7.546;2023-04-15T01:36:28;100348.13;;;10.59;62.80
40788;BME280;26497;52.494;7.546;2023-04-15T01:38:56;100345.50;;;10.56;64.02
40788;BME280;26497;52.494;7.546;2023-04-15T01:41:25;100349.81;;;10.63;63.94
40788;BME280;26497;52.494;7.546;2023-04-15T01:43:54;100350.66;;;10.73;64.07
40788;BME280;26497;52.494;7.546;2023-04-15T01:46:21;100348.91;;;10.75;63.55
40788;BME280;26497;52.494;7.546;2023-04-15T01:48:49;100349.78;;;10.77;63.39
40788;BME280;26497;52.494;7.546;2023-04-15T01:51:16;100348.91;;;10.70;63.27
40788;BME280;26497;52.494;7.546;2023-04-15T01:53:43;100345.41;;;10.70;63.35
40788;BME280;26497;52.494;7.546;2023-04-15T01:56:10;100351.47;;;10.83;62.99
40788;BME280;26497;52.494;7.546;2023-04-15T01:58:37;100351.53;;;10.75;63.13
40788;BME280;26497;52.494;7.546;2023-04-15T02:01:06;100347.19;;;10.65;63.26
40788;BME280;26497;52.494;7.546;2023-04-15T02:03:35;100343.75;;;10.50;63.46
40788;BME280;26497;52.494;7.546;2023-04-15T02:06:03;100344.63;;;10.54;62.99
40788;BME280;26497;52.494;7.546;2023-04-15T02:08:30;100350.78;;;10.51;63.13
40788;BME280;26497;52.494;7.546;2023-04-15T02:10:58;100342.00;;;10.54;62.61
40788;BME280;26497;52.494;7.546;2023-04-15T02:13:26;100344.66;;;10.49;62.82
40788;BME280;26497;52.494;7.546;2023-04-15T02:16:00;100350.00;;;10.26;63.08
40788;BME280;26497;52.494;7.546;2023-04-15T02:18:28;100346.44;;;10.41;62.91
40788;BME280;26497;52.494;7.546;2023-04-15T02:20:56;100359.63;;;10.41;62.80
40788;BME280;26497;52.494;7.546;2023-04-15T02:23:23;100362.25;;;10.36;62.78
40788;BME280;26497;52.494;7.546;2023-04-15T02:25:50;100365.78;;;10.30;62.94
40788;BME280;26497;52.494;7.546;2023-04-15T02:28:17;100363.19;;;10.23;63.07
40788;BME280;26497;52.494;7.546;2023-04-15T02:30:47;100367.56;;;10.25;63.23
40788;BME280;26497;52.494;7.546;2023-04-15T02:33:15;100359.66;;;10.25;63.25
40788;BME280;26497;52.494;7.546;2023-04-15T02:35:44;100364.97;;;10.10;63.46
40788;BME280;26497;52.494;7.546;2023-04-15T02:38:11;100372.00;;;10.11;63.61
40788;BME280;26497;52.494;7.546;2023-04-15T02:40:39;100372.91;;;9.94;63.29
40788;BME280;26497;52.494;7.546;2023-04-15T02:43:06;100372.91;;;9.94;63.55
40788;BME280;26497;52.494;7.546;2023-04-15T02:45:33;100373.81;;;9.98;63.11
40788;BME280;26497;52.494;7.546;2023-04-15T02:48:00;100377.34;;;9.91;63.11
40788;BME280;26497;52.494;7.546;2023-04-15T02:50:30;100380.84;;;9.89;63.18
40788;BME280;26497;52.494;7.546;2023-04-15T02:52:59;100385.22;;;9.94;63.61
40788;BME280;26497;52.494;7.546;2023-04-15T02:55:27;100382.59;;;9.84;63.79
40788;BME280;26497;52.494;7.546;2023-04-15T02:57:54;100382.59;;;9.87;63.55
40788;BME280;26497;52.494;7.546;2023-04-15T03:00:23;100381.75;;;9.90;63.53
40788;BME280;26497;52.494;7.546;2023-04-15T03:02:51;100379.97;;;9.91;63.47
40788;BME280;26497;52.494;7.546;2023-04-15T03:05:21;100385.25;;;9.89;63.20
40788;BME280;26497;52.494;7.546;2023-04-15T03:07:50;100378.25;;;9.79;63.51
40788;BME280;26497;52.494;7.546;2023-04-15T03:10:18;100379.13;;;9.65;63.57
40788;BME280;26497;52.494;7.546;2023-04-15T03:12:45;100386.13;;;9.77;63.61
40788;BME280;26497;52.494;7.546;2023-04-15T03:15:12;100378.25;;;9.63;63.63
40788;BME280;26497;52.494;7.546;2023-04-15T03:17:39;100380.00;;;9.67;63.92
40788;BME280;26497;52.494;7.546;2023-04-15T03:20:07;100388.78;;;9.60;63.88
40788;BME280;26497;52.494;7.546;2023-04-15T03:22:35;100380.03;;;9.58;63.67
40788;BME280;26497;52.494;7.546;2023-04-15T03:25:02;100391.44;;;9.48;64.16
40788;BME280;26497;52.494;7.546;2023-04-15T03:27:30;100389.69;;;9.53;63.92
40788;BME280;26497;52.494;7.546;2023-04-15T03:29:57;100382.66;;;9.52;63.85
40788;BME280;26497;52.494;7.546;2023-04-15T03:32:24;100380.91;;;9.57;63.97
40788;BME280;26497;52.494;7.546;2023-04-15T03:34:51;100385.28;;;9.58;63.72
40788;BME280;26497;52.494;7.546;2023-04-15T03:37:18;100383.50;;;9.58;63.77
40788;BME280;26497;52.494;7.546;2023-04-15T03:39:46;100382.66;;;9.44;63.42
40788;BME280;26497;52.494;7.546;2023-04-15T03:42:13;100380.03;;;9.46;63.67
40788;BME280;26497;52.494;7.546;2023-04-15T03:44:41;100375.63;;;9.37;63.64
40788;BME280;26497;52.494;7.546;2023-04-15T03:47:08;100378.25;;;9.26;63.64
40788;BME280;26497;52.494;7.546;2023-04-15T03:49:35;100369.50;;;9.18;63.78
40788;BME280;26497;52.494;7.546;2023-04-15T03:52:02;100380.03;;;9.22;64.26
40788;BME280;26497;52.494;7.546;2023-04-15T03:54:29;100375.63;;;9.26;63.89
40788;BME280;26497;52.494;7.546;2023-04-15T03:56:56;100379.16;;;9.26;63.74
40788;BME280;26497;52.494;7.546;2023-04-15T03:59:23;100373.00;;;9.35;63.69
40788;BME280;26497;52.494;7.546;2023-04-15T04:01:52;100380.00;;;9.18;64.11
40788;BME280;26497;52.494;7.546;2023-04-15T04:04:19;100391.41;;;9.10;64.43
40788;BME280;26497;52.494;7.546;2023-04-15T04:06:46;100388.78;;;9.13;64.65
40788;BME280;26497;52.494;7.546;2023-04-15T04:09:13;100385.28;;;9.13;65.57
40788;BME280;26497;52.494;7.546;2023-04-15T04:11:41;100385.28;;;9.14;65.48
40788;BME280;26497;52.494;7.546;2023-04-15T04:14:10;100380.03;;;9.21;65.60
40788;BME280;26497;52.494;7.546;2023-04-15T04:16:37;100387.03;;;9.28;65.50
40788;BME280;26497;52.494;7.546;2023-04-15T04:19:05;100391.44;;;9.32;65.71
40788;BME280;26497;52.494;7.546;2023-04-15T04:21:32;100380.88;;;9.30;66.24
40788;BME280;26497;52.494;7.546;2023-04-15T04:23:59;100391.41;;;9.40;65.95
40788;BME280;26497;52.494;7.546;2023-04-15T04:26:26;100387.03;;;9.34;65.78
40788;BME280;26497;52.494;7.546;2023-04-15T04:28:53;100391.41;;;9.34;66.14
40788;BME280;26497;52.494;7.546;2023-04-15T04:31:20;100402.84;;;9.43;66.14
40788;BME280;26497;52.494;7.546;2023-04-15T04:33:48;100397.56;;;9.51;66.24
40788;BME280;26497;52.494;7.546;2023-04-15T04:36:16;100394.94;;;9.54;66.07
40788;BME280;26497;52.494;7.546;2023-04-15T04:38:43;100394.06;;;9.55;66.52
40788;BME280;26497;52.494;7.546;2023-04-15T04:41:10;100391.44;;;9.51;66.36
40788;BME280;26497;52.494;7.546;2023-04-15T04:43:37;100396.69;;;9.52;65.99
40788;BME280;26497;52.494;7.546;2023-04-15T04:46:05;100390.56;;;9.42;66.27
40788;BME280;26497;52.494;7.546;2023-04-15T04:48:32;100400.19;;;9.54;66.41
40788;BME280;26497;52.494;7.546;2023-04-15T04:50:59;100401.97;;;9.54;66.13
40788;BME280;26497;52.494;7.546;2023-04-15T04:53:27;100404.59;;;9.76;66.15
40788;BME280;26497;52.494;7.546;2023-04-15T04:55:54;100415.97;;;9.76;66.11
40788;BME280;26497;52.494;7.546;2023-04-15T04:58:21;100423.91;;;9.68;66.10
40788;BME280;26497;52.494;7.546;2023-04-15T05:00:48;100426.53;;;9.68;66.51
40788;BME280;26497;52.494;7.546;2023-04-15T05:03:16;100428.28;;;9.69;66.54
40788;BME280;26497;52.494;7.546;2023-04-15T05:05:43;100429.16;;;9.81;66.65
40788;BME280;26497;52.494;7.546;2023-04-15T05:08:10;100434.44;;;9.87;66.91
40788;BME280;26497;52.494;7.546;2023-04-15T05:10:39;100432.63;;;9.95;66.68
40788;BME280;26497;52.494;7.546;2023-04-15T05:13:06;100441.41;;;10.07;66.61
40788;BME280;26497;52.494;7.546;2023-04-15T05:15:33;100444.91;;;10.09;66.60
40788;BME280;26497;52.494;7.546;2023-04-15T05:18:01;100440.50;;;10.22;66.58
40788;BME280;26497;52.494;7.546;2023-04-15T05:20:28;100441.34;;;10.22;67.35
40788;BME280;26497;52.494;7.546;2023-04-15T05:22:55;100448.41;;;10.25;67.79
40788;BME280;26497;52.494;7.546;2023-04-15T05:25:22;100450.97;;;10.39;67.77
40788;BME280;26497;52.494;7.546;2023-04-15T05:27:51;100455.41;;;10.43;67.80
40788;BME280;26497;52.494;7.546;2023-04-15T05:30:18;100449.19;;;10.56;68.07
40788;BME280;26497;52.494;7.546;2023-04-15T05:32:45;100447.38;;;10.71;67.78
40788;BME280;26497;52.494;7.546;2023-04-15T05:35:12;100463.16;;;10.82;67.61
40788;BME280;26497;52.494;7.546;2023-04-15T05:37:39;100462.28;;;10.84;67.72
40788;BME280;26497;52.494;7.546;2023-04-15T05:40:07;100470.13;;;10.95;68.13
40788;BME280;26497;52.494;7.546;2023-04-15T05:42:35;100470.97;;;11.05;67.94
40788;BME280;26497;52.494;7.546;2023-04-15T05:45:05;100465.66;;;11.11;67.44
40788;BME280;26497;52.494;7.546;2023-04-15T05:47:34;100469.25;;;11.01;67.56
40788;BME280;26497;52.494;7.546;2023-04-15T05:50:02;100466.50;;;11.18;67.69
40788;BME280;26497;52.494;7.546;2023-04-15T05:52:30;100470.91;;;11.16;67.97
40788;BME280;26497;52.494;7.546;2023-04-15T05:54:57;100481.31;;;11.39;67.65
40788;BME280;26497;52.494;7.546;2023-04-15T05:57:24;100470.69;;;11.48;67.36
40788;BME280;26497;52.494;7.546;2023-04-15T05:59:51;100471.47;;;11.60;67.27
40788;BME280;26497;52.494;7.546;2023-04-15T06:02:20;100473.16;;;11.70;67.30
40788;BME280;26497;52.494;7.546;2023-04-15T06:04:47;100472.16;;;11.87;66.96
40788;BME280;26497;52.494;7.546;2023-04-15T06:07:14;100476.44;;;12.02;66.76
40788;BME280;26497;52.494;7.546;2023-04-15T06:09:41;100476.47;;;12.00;67.21
40788;BME280;26497;52.494;7.546;2023-04-15T06:12:08;100491.25;;;12.18;66.66
40788;BME280;26497;52.494;7.546;2023-04-15T06:14:37;100486.78;;;12.27;66.29
40788;BME280;26497;52.494;7.546;2023-04-15T06:17:04;100487.50;;;12.43;66.14
40788;BME280;26497;52.494;7.546;2023-04-15T06:19:33;100502.34;;;12.56;65.69
40788;BME280;26497;52.494;7.546;2023-04-15T06:22:01;100501.34;;;12.63;65.62
40788;BME280;26497;52.494;7.546;2023-04-15T06:24:28;100498.81;;;12.57;65.65
40788;BME280;26497;52.494;7.546;2023-04-15T06:26:56;100496.91;;;12.65;65.11
40788;BME280;26497;52.494;7.546;2023-04-15T06:29:23;100498.50;;;12.83;65.57
40788;BME280;26497;52.494;7.546;2023-04-15T06:31:50;100498.38;;;12.91;64.97
40788;BME280;26497;52.494;7.546;2023-04-15T06:34:17;100504.56;;;12.90;64.06
40788;BME280;26497;52.494;7.546;2023-04-15T06:36:46;100500.13;;;12.94;64.02
40788;BME280;26497;52.494;7.546;2023-04-15T06:39:13;100504.50;;;12.96;64.48
40788;BME280;26497;52.494;7.546;2023-04-15T06:41:40;100515.75;;;13.16;64.15
40788;BME280;26497;52.494;7.546;2023-04-15T06:44:07;100506.84;;;13.20;64.00
40788;BME280;26497;52.494;7.546;2023-04-15T06:46:34;100503.84;;;13.46;63.69
40788;BME280;26497;52.494;7.546;2023-04-15T06:49:01;100507.44;;;13.42;63.58
40788;BME280;26497;52.494;7.546;2023-04-15T06:51:28;100513.34;;;13.61;63.12
40788;BME280;26497;52.494;7.546;2023-04-15T06:53:57;100507.72;;;13.81;63.41
40788;BME280;26497;52.494;7.546;2023-04-15T06:56:24;100512.22;;;13.76;62.93
40788;BME280;26497;52.494;7.546;2023-04-15T06:58:51;100517.34;;;13.89;61.91
40788;BME280;26497;52.494;7.546;2023-04-15T07:01:19;100513.50;;;14.05;62.51
40788;BME280;26497;52.494;7.546;2023-04-15T07:03:47;100516.72;;;14.23;61.53
40788;BME280;26497;52.494;7.546;2023-04-15T07:06:14;100517.53;;;14.28;61.24
40788;BME280;26497;52.494;7.546;2023-04-15T07:08:41;100515.56;;;14.39;61.36
40788;BME280;26497;52.494;7.546;2023-04-15T07:11:10;100510.63;;;14.65;61.38
40788;BME280;26497;52.494;7.546;2023-04-15T07:13:37;100511.31;;;14.78;61.84
40788;BME280;26497;52.494;7.546;2023-04-15T07:16:04;100508.44;;;14.88;59.87
40788;BME280;26497;52.494;7.546;2023-04-15T07:18:32;100511.72;;;15.00;60.55
40788;BME280;26497;52.494;7.546;2023-04-15T07:20:59;100509.13;;;14.98;58.38
40788;BME280;26497;52.494;7.546;2023-04-15T07:23:26;100510.88;;;14.99;60.27
40788;BME280;26497;52.494;7.546;2023-04-15T07:25:53;100511.31;;;15.20;59.59
40788;BME280;26497;52.494;7.546;2023-04-15T07:28:21;100507.97;;;15.12;57.94
40788;BME280;26497;52.494;7.546;2023-04-15T07:30:48;100515.75;;;15.19;57.66
40788;BME280;26497;52.494;7.546;2023-04-15T07:33:16;100518.19;;;15.29;57.63
40788;BME280;26497;52.494;7.546;2023-04-15T07:35:43;100522.47;;;15.36;57.66
40788;BME280;26497;52.494;7.546;2023-04-15T07:38:11;100524.94;;;15.44;56.81
40788;BME280;26497;52.494;7.546;2023-04-15T07:40:38;100528.91;;;15.24;54.85
40788;BME280;26497;52.494;7.546;2023-04-15T07:43:07;100533.56;;;15.14;55.87
40788;BME280;26497;52.494;7.546;2023-04-15T07:45:35;100530.19;;;15.06;56.88
40788;BME280;26497;52.494;7.546;2023-04-15T07:48:03;100525.44;;;15.22;55.73
40788;BME280;26497;52.494;7.546;2023-04-15T07:50:31;100526.50;;;15.15;55.03
40788;BME280;26497;52.494;7.546;2023-04-15T07:52:58;100530.56;;;14.89;54.55
40788;BME280;26497;52.494;7.546;2023-04-15T07:55:25;100520.75;;;14.93;55.29
40788;BME280;26497;52.494;7.546;2023-04-15T07:57:52;100530.25;;;15.03;55.04
40788;BME280;26497;52.494;7.546;2023-04-15T08:00:19;100540.56;;;15.18;55.35
40788;BME280;26497;52.494;7.546;2023-04-15T08:02:47;100520.84;;;15.29;54.28
40788;BME280;26497;52.494;7.546;2023-04-15T08:05:14;100527.88;;;15.31;54.50
40788;BME280;26497;52.494;7.546;2023-04-15T08:07:41;100521.75;;;15.28;54.96
40788;BME280;26497;52.494;7.546;2023-04-15T08:10:09;100533.47;;;15.58;54.26
40788;BME280;26497;52.494;7.546;2023-04-15T08:12:36;100531.88;;;15.90;53.47
40788;BME280;26497;52.494;7.546;2023-04-15T08:15:05;100536.41;;;16.21;52.59
40788;BME280;26497;52.494;7.546;2023-04-15T08:17:32;100533.94;;;16.48;52.44
40788;BME280;26497;52.494;7.546;2023-04-15T08:20:01;100534.88;;;16.79;51.16
40788;BME280;26497;52.494;7.546;2023-04-15T08:22:29;100536.19;;;16.95;50.67
40788;BME280;26497;52.494;7.546;2023-04-15T08:24:56;100535.63;;;16.84;49.76
40788;BME280;26497;52.494;7.546;2023-04-15T08:27:23;100536.25;;;16.92;50.18
40788;BME280;26497;52.494;7.546;2023-04-15T08:29:49;100532.69;;;17.25;49.37
40788;BME280;26497;52.494;7.546;2023-04-15T08:32:17;100523.09;;;17.48;48.02
40788;BME280;26497;52.494;7.546;2023-04-15T08:34:45;100530.31;;;17.73;47.92
40788;BME280;26497;52.494;7.546;2023-04-15T08:37:13;100532.50;;;17.88;46.91
40788;BME280;26497;52.494;7.546;2023-04-15T08:39:40;100524.78;;;17.79;46.88
40788;BME280;26497;52.494;7.546;2023-04-15T08:42:11;100535.88;;;17.65;47.68
40788;BME280;26497;52.494;7.546;2023-04-15T08:44:42;100544.16;;;17.56;48.13
40788;BME280;26497;52.494;7.546;2023-04-15T08:47:13;100539.84;;;17.23;48.27
40788;BME280;26497;52.494;7.546;2023-04-15T08:49:43;100551.16;;;17.31;48.26
40788;BME280;26497;52.494;7.546;2023-04-15T08:52:10;100548.53;;;17.00;48.54
40788;BME280;26497;52.494;7.546;2023-04-15T08:54:39;100540.22;;;17.10;48.46
40788;BME280;26497;52.494;7.546;2023-04-15T08:57:07;100540.19;;;16.79;49.05
40788;BME280;26497;52.494;7.546;2023-04-15T08:59:34;100543.97;;;16.70;50.04
40788;BME280;26497;52.494;7.546;2023-04-15T09:02:01;100546.28;;;16.83;50.09
40788;BME280;26497;52.494;7.546;2023-04-15T09:04:29;100544.63;;;16.78;49.59
40788;BME280;26497;52.494;7.546;2023-04-15T09:06:56;100553.88;;;16.65;49.92
40788;BME280;26497;52.494;7.546;2023-04-15T09:09:24;100552.97;;;16.66;50.00
40788;BME280;26497;52.494;7.546;2023-04-15T09:11:53;100563.00;;;16.89;50.28
40788;BME280;26497;52.494;7.546;2023-04-15T09:14:21;100564.69;;;16.92;49.78
40788;BME280;26497;52.494;7.546;2023-04-15T09:16:59;100562.09;;;16.89;49.63
40788;BME280;26497;52.494;7.546;2023-04-15T09:19:27;100562.94;;;16.58;50.37
40788;BME280;26497;52.494;7.546;2023-04-15T09:21:57;100567.53;;;16.53;51.15
40788;BME280;26497;52.494;7.546;2023-04-15T09:24:25;100577.09;;;16.25;52.01
40788;BME280;26497;52.494;7.546;2023-04-15T09:27:00;100575.72;;;16.09;53.00
40788;BME280;26497;52.494;7.546;2023-04-15T09:29:28;100577.84;;;15.96;53.00
40788;BME280;26497;52.494;7.546;2023-04-15T09:31:55;100570.19;;;15.80;54.87
40788;BME280;26497;52.494;7.546;2023-04-15T09:34:34;100585.38;;;15.75;55.72
40788;BME280;26497;52.494;7.546;2023-04-15T09:37:02;100581.16;;;15.66;55.13
40788;BME280;26497;52.494;7.546;2023-04-15T09:39:45;100586.91;;;15.46;55.72
40788;BME280;26497;52.494;7.546;2023-04-15T09:42:16;100589.66;;;15.41;56.52
40788;BME280;26497;52.494;7.546;2023-04-15T09:44:49;100588.44;;;15.56;58.25
40788;BME280;26497;52.494;7.546;2023-04-15T09:47:29;100594.16;;;15.39;58.09
40788;BME280;26497;52.494;7.546;2023-04-15T09:49:58;100598.19;;;15.15;57.46
40788;BME280;26497;52.494;7.546;2023-04-15T09:52:26;100596.66;;;15.03;58.74
40788;BME280;26497;52.494;7.546;2023-04-15T09:54:54;100599.72;;;15.25;59.41
40788;BME280;26497;52.494;7.546;2023-04-15T09:57:23;100599.47;;;15.38;59.95
40788;BME280;26497;52.494;7.546;2023-04-15T09:59:51;100608.16;;;15.47;59.43
40788;BME280;26497;52.494;7.546;2023-04-15T10:02:20;100605.22;;;15.58;59.66
40788;BME280;26497;52.494;7.546;2023-04-15T10:04:48;100603.47;;;15.59;59.39
40788;BME280;26497;52.494;7.546;2023-04-15T10:07:17;100604.25;;;15.62;60.26
40788;BME280;26497;52.494;7.546;2023-04-15T10:09:47;100602.44;;;15.65;59.43
40788;BME280;26497;52.494;7.546;2023-04-15T10:12:16;100603.16;;;15.73;60.03
40788;BME280;26497;52.494;7.546;2023-04-15T10:14:51;100613.00;;;15.68;60.51
40788;BME280;26497;52.494;7.546;2023-04-15T10:17:21;100612.81;;;15.77;60.53
40788;BME280;26497;52.494;7.546;2023-04-15T10:19:49;100610.91;;;15.82;60.16
40788;BME280;26497;52.494;7.546;2023-04-15T10:22:21;100612.59;;;15.88;61.58
40788;BME280;26497;52.494;7.546;2023-04-15T10:24:49;100610.00;;;15.83;60.45
40788;BME280;26497;52.494;7.546;2023-04-15T10:27:17;100610.41;;;15.66;60.57
40788;BME280;26497;52.494;7.546;2023-04-15T10:29:47;100606.41;;;15.46;60.52
40788;BME280;26497;52.494;7.546;2023-04-15T10:32:16;100620.59;;;15.44;61.64
40788;BME280;26497;52.494;7.546;2023-04-15T10:34:45;100614.38;;;15.45;62.50
40788;BME280;26497;52.494;7.546;2023-04-15T10:37:19;100617.22;;;15.36;62.57
40788;BME280;26497;52.494;7.546;2023-04-15T10:39:47;100619.88;;;15.37;62.63
40788;BME280;26497;52.494;7.546;2023-04-15T10:42:16;100616.25;;;15.40;62.59
40788;BME280;26497;52.494;7.546;2023-04-15T10:44:48;100616.31;;;15.38;63.28
40788;BME280;26497;52.494;7.546;2023-04-15T10:47:18;100616.91;;;15.51;62.61
40788;BME280;26497;52.494;7.546;2023-04-15T10:49:49;100614.81;;;15.67;62.79
40788;BME280;26497;52.494;7.546;2023-04-15T10:52:22;100621.66;;;15.77;62.54
40788;BME280;26497;52.494;7.546;2023-04-15T10:54:50;100623.69;;;15.66;63.80
40788;BME280;26497;52.494;7.546;2023-04-15T10:57:34;100625.31;;;15.73;62.69
40788;BME280;26497;52.494;7.546;2023-04-15T11:00:15;100620.59;;;15.88;62.28
40788;BME280;26497;52.494;7.546;2023-04-15T11:02:45;100626.09;;;15.77;62.38
40788;BME280;26497;52.494;7.546;2023-04-15T11:05:13;100628.63;;;15.83;63.13
40788;BME280;26497;52.494;7.546;2023-04-15T11:07:49;100625.66;;;15.97;62.45
40788;BME280;26497;52.494;7.546;2023-04-15T11:10:51;100618.63;;;15.95;62.54
40788;BME280;26497;52.494;7.546;2023-04-15T11:13:26;100629.66;;;15.76;63.78
40788;BME280;26497;52.494;7.546;2023-04-15T11:16:01;100625.94;;;15.85;64.09
40788;BME280;26497;52.494;7.546;2023-04-15T11:18:33;100625.28;;;16.13;63.14
40788;BME280;26497;52.494;7.546;2023-04-15T11:21:03;100631.22;;;16.24;62.67
40788;BME280;26497;52.494;7.546;2023-04-15T11:23:34;100633.88;;;16.26;61.98
40788;BME280;26497;52.494;7.546;2023-04-15T11:26:03;100634.72;;;16.28;62.47
40788;BME280;26497;52.494;7.546;2023-04-15T11:28:34;100642.91;;;16.18;62.61
40788;BME280;26497;52.494;7.546;2023-04-15T11:31:11;100644.72;;;16.16;62.81
40788;BME280;26497;52.494;7.546;2023-04-15T11:33:45;100644.50;;;16.26;62.69
40788;BME280;26497;52.494;7.546;2023-04-15T11:36:12;100651.50;;;16.30;62.65
40788;BME280;26497;52.494;7.546;2023-04-15T11:38:42;100644.91;;;16.46;62.32
40788;BME280;26497;52.494;7.546;2023-04-15T11:41:11;100648.06;;;16.61;62.24
40788;BME280;26497;52.494;7.546;2023-04-15T11:43:38;100653.34;;;16.26;61.83
40788;BME280;26497;52.494;7.546;2023-04-15T11:46:06;100654.03;;;16.34;62.20
40788;BME280;26497;52.494;7.546;2023-04-15T11:48:35;100663.59;;;16.43;62.80
40788;BME280;26497;52.494;7.546;2023-04-15T11:51:04;100661.94;;;16.39;62.16
40788;BME280;26497;52.494;7.546;2023-04-15T11:53:40;100672.03;;;16.25;61.94
40788;BME280;26497;52.494;7.546;2023-04-15T11:56:09;100674.63;;;16.28;62.33
40788;BME280;26497;52.494;7.546;2023-04-15T11:58:37;100666.72;;;16.23;62.55
40788;BME280;26497;52.494;7.546;2023-04-15T12:01:06;100666.09;;;16.12;62.17
40788;BME280;26497;52.494;7.546;2023-04-15T12:03:39;100671.47;;;16.10;62.96
40788;BME280;26497;52.494;7.546;2023-04-15T12:06:14;100673.59;;;15.94;62.24
40788;BME280;26497;52.494;7.546;2023-04-15T12:09:07;100675.88;;;15.70;63.77
40788;BME280;26497;52.494;7.546;2023-04-15T12:11:44;100680.13;;;15.79;63.40
40788;BME280;26497;52.494;7.546;2023-04-15T12:14:21;100674.63;;;15.88;63.24
40788;BME280;26497;52.494;7.546;2023-04-15T12:16:52;100675.06;;;15.67;64.34
40788;BME280;26497;52.494;7.546;2023-04-15T12:19:26;100678.44;;;15.75;64.13
40788;BME280;26497;52.494;7.546;2023-04-15T12:21:59;100680.84;;;15.87;64.23
40788;BME280;26497;52.494;7.546;2023-04-15T12:24:28;100692.69;;;15.72;64.04
40788;BME280;26497;52.494;7.546;2023-04-15T12:27:00;100692.75;;;15.68;64.43
40788;BME280;26497;52.494;7.546;2023-04-15T12:29:29;100695.34;;;15.72;64.42
40788;BME280;26497;52.494;7.546;2023-04-15T12:32:02;100692.94;;;15.58;64.72
40788;BME280;26497;52.494;7.546;2023-04-15T12:34:33;100707.28;;;15.51;64.74
40788;BME280;26497;52.494;7.546;2023-04-15T12:37:03;100701.22;;;15.43;65.27
40788;BME280;26497;52.494;7.546;2023-04-15T12:39:33;100709.31;;;15.37;65.01
40788;BME280;26497;52.494;7.546;2023-04-15T12:42:01;100708.81;;;15.19;65.39
40788;BME280;26497;52.494;7.546;2023-04-15T12:44:29;100701.56;;;15.26;65.41
40788;BME280;26497;52.494;7.546;2023-04-15T12:46:56;100712.16;;;15.27;65.75
40788;BME280;26497;52.494;7.546;2023-04-15T12:49:25;100700.38;;;15.41;65.46
40788;BME280;26497;52.494;7.546;2023-04-15T12:51:55;100709.53;;;15.26;65.33
40788;BME280;26497;52.494;7.546;2023-04-15T12:54:24;100712.31;;;15.19;65.69
40788;BME280;26497;52.494;7.546;2023-04-15T12:56:53;100717.00;;;15.07;65.88
40788;BME280;26497;52.494;7.546;2023-04-15T12:59:20;100710.84;;;15.04;65.99